Terminal Aerodrome Forecast
Issued by NWS

Home | Current Version | Previous Version | Text Only | Print | Product List | Glossary On
Versions: 1 2 3 4 5 6 7 8 9 10 11 12 13 14 15 16 17 18 19 20 21 22 23 24 25
000
FTUS43 KGLD 060520
TAFMCK
TAF
KMCK 060520Z 0606/0706 17012KT P6SM FEW250
     FM060700 17007KT P6SM FEW250 WS005/17045KT
     FM061400 17008KT P6SM FEW250
     FM061900 17013G21KT P6SM SCT250
     FM070500 16010KT P6SM SCT250 WS005/21010KT=

USA.gov is the U.S. government's official web portal to all federal, state and local government web resources and services.